Terminal Aerodrome Forecast
Issued by NWS

Home | Current Version | Previous Version | Text Only | Print | Product List | Glossary On
Versions: 1 2 3 4 5 6 7 8 9 10 11 12 13 14 15 16 17 18
000
FTUS41 KBOX 291120
TAFBED
TAF
KBED 291120Z 2912/3012 05004KT P6SM SCT025
      TEMPO 2912/2913 BKN025
     FM291400 11005KT P6SM BKN150
     FM291700 13008KT P6SM BKN050
     FM300200 00000KT P6SM OVC150=

USA.gov is the U.S. government's official web portal to all federal, state and local government web resources and services.